Time;durP1;ratioP1;P1;durP2;ratioP2;P2;SDS_P1;SDS_P2;PMS_P1;PMS_P2;Temp;Humidity;BMP_temperature;BMP_pressure;BME280_temperature;BME280_humidity;BME280_pressure;Samples;Min_cycle;Max_cycle;Signal;HPM_P1;HPM_P2
2021/06/13 00:01:32;;;;;;;1.65;1.30;;;24.90;65.30;;;;;;5004814;28;20030;-61
2021/06/13 00:03:58;;;;;;;3.45;1.50;;;24.90;66.00;;;;;;5002686;28;20450;-60
2021/06/13 00:06:23;;;;;;;5.00;1.70;;;24.90;65.40;;;;;;5003368;28;20088;-60
2021/06/13 00:08:49;;;;;;;1.23;1.13;;;24.90;65.50;;;;;;5003753;28;20160;-61
2021/06/13 00:11:14;;;;;;;2.38;1.40;;;24.80;65.50;;;;;;5003585;28;20104;-60
2021/06/13 00:13:40;;;;;;;1.38;1.27;;;24.80;65.60;;;;;;5003566;28;20084;-60
2021/06/13 00:16:06;;;;;;;2.15;1.33;;;24.80;65.60;;;;;;5003814;28;20154;-60
2021/06/13 00:18:32;;;;;;;1.63;1.50;;;24.80;65.70;;;;;;5003399;28;20038;-60
2021/06/13 00:20:58;;;;;;;5.00;1.52;;;24.70;65.70;;;;;;4987358;28;20040;-60
2021/06/13 00:23:23;;;;;;;3.03;1.50;;;24.70;65.90;;;;;;5002370;28;20441;-61
2021/06/13 00:25:49;;;;;;;2.03;1.52;;;24.70;66.00;;;;;;5003652;28;20045;-60
2021/06/13 00:28:14;;;;;;;2.10;1.45;;;24.60;66.00;;;;;;5003406;28;20034;-60
2021/06/13 00:30:40;;;;;;;1.90;1.50;;;24.60;66.20;;;;;;5004909;28;20026;-60
2021/06/13 00:33:05;;;;;;;2.72;1.25;;;24.60;66.20;;;;;;5003820;28;20130;-61
2021/06/13 00:35:31;;;;;;;2.08;1.40;;;24.50;66.30;;;;;;5002858;28;20487;-60
2021/06/13 00:37:57;;;;;;;1.63;1.30;;;24.50;66.40;;;;;;5003039;28;20030;-61
2021/06/13 00:40:24;;;;;;;1.80;1.38;;;24.50;66.60;;;;;;5002421;28;20516;-60
2021/06/13 00:42:50;;;;;;;3.28;1.80;;;24.50;66.70;;;;;;5002604;28;20466;-60
2021/06/13 00:45:16;;;;;;;4.30;1.80;;;24.50;66.80;;;;;;5001171;28;20030;-60
2021/06/13 00:47:41;;;;;;;2.53;1.35;;;24.40;67.00;;;;;;5002762;28;20470;-59
2021/06/13 00:50:13;;;;;;;5.45;1.73;;;24.40;67.10;;;;;;5001955;28;20029;-60
2021/06/13 00:52:39;;;;;;;4.40;1.50;;;24.40;67.10;;;;;;5004203;28;20500;-60
2021/06/13 00:55:05;;;;;;;3.53;1.85;;;24.30;67.20;;;;;;4985565;28;20037;-60
2021/06/13 00:57:30;;;;;;;4.20;2.10;;;24.30;67.30;;;;;;5001268;28;20033;-60
2021/06/13 00:59:56;;;;;;;1.95;1.55;;;24.30;67.40;;;;;;5002275;28;20030;-61
2021/06/13 01:02:21;;;;;;;3.28;1.52;;;24.30;67.50;;;;;;5001939;28;20042;-61
2021/06/13 01:04:47;;;;;;;1.85;1.52;;;24.20;67.50;;;;;;5003277;28;20511;-60
2021/06/13 01:07:29;;;;;;;1.60;1.50;;;24.20;67.60;;;;;;5005052;28;20113;-61
2021/06/13 01:10:24;;;;;;;1.80;1.60;;;24.20;67.70;;;;;;5021805;28;20112;-59
2021/06/13 01:12:55;;;;;;;4.05;1.30;;;24.20;67.70;;;;;;5006436;28;20372;-61
2021/06/13 01:15:23;;;;;;;3.50;1.70;;;24.10;67.70;;;;;;5005746;28;20057;-60
2021/06/13 01:18:02;;;;;;;1.95;1.55;;;24.10;67.80;;;;;;4986994;28;20022;-60
2021/06/13 01:20:33;;;;;;;1.70;1.60;;;24.10;68.00;;;;;;5007602;28;20300;-61
2021/06/13 01:23:36;;;;;;;1.70;1.50;;;24.10;68.00;;;;;;5007388;28;20040;-61
2021/06/13 01:26:16;;;;;;;3.47;1.80;;;24.00;68.00;;;;;;5005610;28;20092;-60
2021/06/13 01:29:08;;;;;;;3.65;1.80;;;24.00;68.10;;;;;;5007036;28;20378;-60
2021/06/13 01:31:36;;;;;;;3.05;1.70;;;24.00;68.10;;;;;;5005489;28;20044;-61
2021/06/13 01:34:04;;;;;;;1.85;1.55;;;24.00;68.20;;;;;;4988611;28;20032;-59
2021/06/13 01:36:32;;;;;;;2.10;1.48;;;24.00;68.40;;;;;;4987953;28;20029;-60
2021/06/13 01:38:57;;;;;;;1.60;1.50;;;24.00;68.50;;;;;;4988385;28;20061;-60
2021/06/13 01:41:25;;;;;;;2.92;1.80;;;23.90;68.40;;;;;;5005914;28;20125;-60
2021/06/13 01:43:54;;;;;;;1.73;1.63;;;23.90;68.60;;;;;;5006991;28;20591;-60
2021/06/13 01:46:20;;;;;;;4.95;1.70;;;23.90;68.60;;;;;;4989206;28;20091;-60
2021/06/13 01:48:45;;;;;;;1.90;1.58;;;23.90;68.70;;;;;;4971188;28;20494;-61
2021/06/13 01:51:11;;;;;;;2.67;1.60;;;23.80;69.40;;;;;;5005035;28;20061;-61
2021/06/13 01:53:43;;;;;;;2.25;1.40;;;23.80;68.80;;;;;;4989137;28;20115;-61
2021/06/13 01:56:13;;;;;;;2.08;1.70;;;23.80;68.80;;;;;;4989884;28;20226;-61
2021/06/13 01:58:40;;;;;;;2.53;1.90;;;23.80;68.90;;;;;;5002498;28;20034;-60
2021/06/13 02:01:07;;;;;;;3.78;1.80;;;23.80;69.00;;;;;;4996017;28;20038;-60
2021/06/13 02:03:35;;;;;;;3.72;1.88;;;23.70;69.10;;;;;;4987063;28;20033;-60
2021/06/13 02:06:00;;;;;;;2.00;1.70;;;23.60;69.10;;;;;;4984118;28;20025;-60
2021/06/13 02:08:26;;;;;;;2.75;1.73;;;23.70;69.20;;;;;;5000001;28;20355;-60
2021/06/13 02:10:51;;;;;;;4.13;1.85;;;23.70;69.40;;;;;;4981694;28;20037;-62
2021/06/13 02:13:17;;;;;;;3.97;2.17;;;23.70;69.50;;;;;;4984824;28;20136;-61
2021/06/13 02:15:44;;;;;;;3.72;1.92;;;23.60;69.50;;;;;;5001924;28;20641;-61
2021/06/13 02:18:09;;;;;;;2.30;1.90;;;23.60;69.60;;;;;;4983191;28;20033;-60
2021/06/13 02:20:35;;;;;;;2.45;1.70;;;23.60;69.70;;;;;;4985825;28;20058;-60
2021/06/13 02:23:01;;;;;;;2.67;2.10;;;23.60;69.80;;;;;;4999664;28;20073;-60
2021/06/13 02:25:26;;;;;;;2.58;1.77;;;23.60;69.80;;;;;;4985775;28;20054;-60
2021/06/13 02:27:56;;;;;;;2.15;1.80;;;23.50;69.90;;;;;;4999234;28;20034;-60
2021/06/13 02:30:22;;;;;;;2.83;1.98;;;23.50;69.90;;;;;;4985907;28;20045;-60
2021/06/13 02:32:47;;;;;;;2.90;1.90;;;23.50;70.10;;;;;;4999620;28;20096;-60
2021/06/13 02:35:13;;;;;;;2.22;2.03;;;23.50;70.10;;;;;;4985730;28;20048;-60
2021/06/13 02:37:40;;;;;;;3.38;1.60;;;23.40;70.10;;;;;;4966242;28;20121;-61
2021/06/13 02:40:09;;;;;;;2.33;1.92;;;23.40;70.30;;;;;;4984664;28;20559;-61
2021/06/13 02:42:35;;;;;;;2.55;2.20;;;23.40;70.40;;;;;;5002233;28;20591;-60
2021/06/13 02:45:01;;;;;;;2.15;1.90;;;23.40;70.40;;;;;;4982506;28;20030;-61
2021/06/13 02:47:26;;;;;;;3.15;1.80;;;23.40;70.40;;;;;;4999857;28;20501;-60
2021/06/13 02:49:52;;;;;;;3.88;2.20;;;23.40;70.40;;;;;;5000128;28;20052;-61
2021/06/13 02:52:25;;;;;;;1.77;1.55;;;23.30;70.40;;;;;;5004690;28;20049;-60
2021/06/13 02:54:50;;;;;;;2.25;1.98;;;23.30;70.60;;;;;;5004895;28;20412;-61
2021/06/13 02:57:31;;;;;;;4.78;1.75;;;23.30;70.70;;;;;;4986658;28;20026;-60
2021/06/13 02:59:58;;;;;;;4.05;1.98;;;23.30;70.70;;;;;;5020456;28;20303;-60
2021/06/13 03:02:25;;;;;;;2.20;1.80;;;23.20;70.80;;;;;;4987833;28;20464;-61
2021/06/13 03:04:51;;;;;;;2.92;2.10;;;23.30;70.90;;;;;;5004857;28;20034;-61
2021/06/13 03:07:17;;;;;;;2.75;1.90;;;23.20;70.80;;;;;;4986275;28;20044;-60
2021/06/13 03:09:43;;;;;;;2.42;1.80;;;23.20;70.90;;;;;;5003279;28;20133;-60
2021/06/13 03:12:09;;;;;;;4.22;2.25;;;23.20;70.90;;;;;;5003082;28;20160;-60
2021/06/13 03:14:35;;;;;;;2.00;1.80;;;23.20;71.10;;;;;;5004394;28;20037;-60
2021/06/13 03:17:01;;;;;;;3.05;1.92;;;23.10;71.10;;;;;;4987619;28;20065;-61
2021/06/13 03:19:27;;;;;;;2.97;1.88;;;23.10;71.20;;;;;;5002563;28;20081;-60
2021/06/13 03:21:52;;;;;;;3.38;2.22;;;23.10;71.30;;;;;;4987440;28;20489;-60
2021/06/13 03:24:18;;;;;;;1.98;1.80;;;23.10;71.40;;;;;;4986911;28;20058;-60
2021/06/13 03:26:44;;;;;;;3.50;1.90;;;23.00;71.40;;;;;;5004263;28;20439;-60
2021/06/13 03:29:09;;;;;;;1.75;1.60;;;23.00;71.50;;;;;;5002500;28;20121;-61
2021/06/13 03:31:35;;;;;;;4.63;2.00;;;23.00;71.70;;;;;;4987004;28;20030;-59
2021/06/13 03:34:00;;;;;;;2.55;2.00;;;23.00;71.70;;;;;;5002576;28;20038;-60
2021/06/13 03:36:26;;;;;;;4.10;1.90;;;23.00;71.80;;;;;;4985795;28;20502;-61
2021/06/13 03:38:51;;;;;;;6.95;2.35;;;23.00;71.90;;;;;;5001004;28;20834;-61
2021/06/13 03:41:18;;;;;;;5.40;2.20;;;22.90;72.00;;;;;;4987078;28;20498;-60
2021/06/13 03:43:43;;;;;;;4.15;2.10;;;22.90;71.90;;;;;;4987775;28;20147;-59
2021/06/13 03:46:09;;;;;;;4.05;2.10;;;22.90;72.00;;;;;;4986770;28;20430;-61
2021/06/13 03:48:35;;;;;;;4.97;2.20;;;22.90;72.20;;;;;;5001646;28;20030;-61
2021/06/13 03:51:02;;;;;;;4.50;2.28;;;22.80;72.20;;;;;;5003869;28;20022;-61
2021/06/13 03:53:27;;;;;;;2.58;2.00;;;22.80;72.20;;;;;;4987036;28;20022;-59
2021/06/13 03:55:53;;;;;;;3.03;2.00;;;22.80;72.30;;;;;;5003943;28;20026;-59
2021/06/13 03:58:24;;;;;;;3.28;2.20;;;22.80;72.30;;;;;;4984762;28;20045;-61
2021/06/13 04:00:50;;;;;;;3.65;2.25;;;22.80;72.30;;;;;;5002181;28;20394;-59
2021/06/13 04:03:16;;;;;;;3.00;2.00;;;22.80;72.50;;;;;;4985706;28;20053;-60
2021/06/13 04:05:41;;;;;;;3.20;2.22;;;22.80;72.50;;;;;;4985919;28;20065;-60
2021/06/13 04:08:08;;;;;;;3.70;2.20;;;22.80;72.50;;;;;;5001659;28;20029;-60
2021/06/13 04:10:33;;;;;;;6.20;2.22;;;22.80;72.60;;;;;;4983979;28;20034;-60
2021/06/13 04:12:59;;;;;;;3.05;2.10;;;22.70;72.70;;;;;;4986341;28;20045;-60
2021/06/13 04:15:25;;;;;;;2.25;1.98;;;22.70;72.70;;;;;;5003661;28;20026;-61
2021/06/13 04:17:50;;;;;;;5.65;2.28;;;22.70;72.80;;;;;;5002402;28;20034;-61
2021/06/13 04:20:16;;;;;;;3.72;2.13;;;22.70;72.80;;;;;;5004003;28;20405;-60
2021/06/13 04:22:42;;;;;;;3.00;1.90;;;22.70;72.90;;;;;;5002468;28;20077;-60
2021/06/13 04:25:09;;;;;;;4.20;2.45;;;22.70;73.00;;;;;;5004042;28;20103;-60
2021/06/13 04:27:36;;;;;;;5.72;2.22;;;22.60;73.00;;;;;;5002345;28;20068;-60
2021/06/13 04:30:02;;;;;;;3.45;2.00;;;22.70;73.00;;;;;;5003618;28;20486;-60
2021/06/13 04:32:28;;;;;;;3.45;2.00;;;22.50;73.00;;;;;;5003746;28;20121;-61
2021/06/13 04:34:53;;;;;;;4.85;2.22;;;22.60;73.20;;;;;;5003959;28;20037;-60
2021/06/13 04:37:19;;;;;;;6.45;2.53;;;22.60;73.30;;;;;;5002906;28;20096;-59
2021/06/13 04:39:44;;;;;;;3.28;2.13;;;22.60;73.30;;;;;;5003713;28;20080;-59
2021/06/13 04:42:10;;;;;;;5.35;2.47;;;22.60;73.30;;;;;;5006475;28;20049;-60
2021/06/13 04:44:36;;;;;;;2.72;2.20;;;22.40;73.20;;;;;;4988862;28;20096;-60
2021/06/13 04:47:02;;;;;;;4.25;2.00;;;22.60;73.40;;;;;;5007554;28;20069;-60
2021/06/13 04:49:27;;;;;;;6.93;2.38;;;22.60;73.40;;;;;;5007502;28;20437;-61
2021/06/13 04:51:55;;;;;;;4.30;2.67;;;22.60;73.40;;;;;;5007726;28;20033;-60
2021/06/13 04:54:23;;;;;;;7.63;2.58;;;22.60;73.40;;;;;;4989390;28;20042;-61
2021/06/13 04:56:58;;;;;;;6.63;2.40;;;22.60;73.50;;;;;;5007854;28;20088;-61
2021/06/13 04:59:24;;;;;;;3.97;2.50;;;22.70;73.60;;;;;;5006934;28;20044;-60
2021/06/13 05:01:49;;;;;;;2.58;2.38;;;22.60;73.60;;;;;;5008084;28;20026;-60
2021/06/13 05:04:15;;;;;;;5.50;2.60;;;22.60;73.60;;;;;;5006200;28;20042;-61
2021/06/13 05:06:44;;;;;;;2.45;2.25;;;22.60;73.60;;;;;;4989565;28;20494;-60
2021/06/13 05:09:09;;;;;;;5.15;3.08;;;22.50;73.60;;;;;;5006129;28;20061;-60
2021/06/13 05:11:35;;;;;;;4.88;2.40;;;22.50;73.60;;;;;;4988415;28;20107;-60
2021/06/13 05:14:01;;;;;;;5.90;2.28;;;22.50;73.70;;;;;;5003897;28;20030;-60
2021/06/13 05:16:26;;;;;;;4.63;2.72;;;22.50;73.70;;;;;;5007650;28;20049;-60
2021/06/13 05:18:52;;;;;;;5.63;2.67;;;22.50;73.80;;;;;;5006323;28;20085;-59
2021/06/13 05:21:17;;;;;;;8.70;2.65;;;22.50;73.80;;;;;;4989621;28;20029;-60
2021/06/13 05:23:43;;;;;;;2.78;2.40;;;22.50;73.90;;;;;;5007123;28;20580;-60
2021/06/13 05:26:08;;;;;;;5.68;2.42;;;22.50;73.80;;;;;;5005126;28;20402;-60
2021/06/13 05:28:34;;;;;;;7.35;2.55;;;22.40;73.70;;;;;;5005488;28;20026;-60
2021/06/13 05:31:00;;;;;;;4.15;2.35;;;22.40;73.80;;;;;;5005969;28;20062;-60
2021/06/13 05:33:25;;;;;;;6.53;2.67;;;22.40;73.80;;;;;;5005704;28;20056;-60
2021/06/13 05:35:51;;;;;;;6.40;2.55;;;22.40;73.90;;;;;;5006866;28;20399;-61
2021/06/13 05:38:17;;;;;;;4.45;2.70;;;22.40;74.00;;;;;;5004291;28;20160;-60
2021/06/13 05:40:42;;;;;;;7.18;2.72;;;22.40;74.00;;;;;;5004446;28;20034;-60
2021/06/13 05:43:09;;;;;;;10.63;3.00;;;22.40;74.10;;;;;;5006403;28;20546;-60
2021/06/13 05:45:34;;;;;;;6.57;2.85;;;22.40;74.10;;;;;;5003548;28;20375;-60
2021/06/13 05:48:00;;;;;;;4.00;2.72;;;22.40;74.10;;;;;;5006725;28;20029;-60
2021/06/13 05:50:26;;;;;;;5.25;2.63;;;22.40;74.10;;;;;;5005888;28;20355;-60
2021/06/13 05:52:52;;;;;;;5.22;2.67;;;22.40;74.10;;;;;;5005114;28;20034;-59
2021/06/13 05:55:17;;;;;;;8.68;3.28;;;22.40;74.20;;;;;;5006256;28;20569;-60
2021/06/13 05:57:44;;;;;;;5.18;3.13;;;22.40;74.40;;;;;;5004810;28;20049;-60
2021/06/13 06:00:14;;;;;;;4.50;2.85;;;22.40;74.50;;;;;;5002504;28;20384;-59
2021/06/13 06:02:40;;;;;;;5.53;2.88;;;22.30;74.60;;;;;;5005336;28;20076;-60
2021/06/13 06:05:07;;;;;;;6.78;3.13;;;22.30;74.70;;;;;;5003207;28;20436;-61
2021/06/13 06:07:32;;;;;;;3.97;2.70;;;22.30;74.70;;;;;;5004117;28;20116;-60
2021/06/13 06:09:58;;;;;;;7.97;3.13;;;22.30;74.70;;;;;;5003158;28;20034;-60
2021/06/13 06:12:24;;;;;;;6.38;3.15;;;22.30;74.70;;;;;;4988600;28;20375;-60
2021/06/13 06:14:49;;;;;;;6.95;3.70;;;22.30;74.80;;;;;;5004228;28;20069;-60
2021/06/13 06:17:15;;;;;;;5.90;3.35;;;22.30;74.90;;;;;;5005657;28;20123;-60
2021/06/13 06:19:40;;;;;;;6.30;3.15;;;22.30;75.20;;;;;;5004692;28;20093;-60
2021/06/13 06:22:06;;;;;;;4.57;3.00;;;22.30;75.40;;;;;;5004152;28;20064;-60
2021/06/13 06:24:31;;;;;;;5.60;3.20;;;22.30;75.10;;;;;;5004516;28;20029;-59
2021/06/13 06:26:57;;;;;;;11.77;3.45;;;22.30;75.20;;;;;;5005621;28;20100;-61
2021/06/13 06:29:23;;;;;;;11.25;3.50;;;22.30;75.20;;;;;;5005120;28;20353;-59
2021/06/13 06:31:48;;;;;;;7.13;3.90;;;22.20;75.20;;;;;;5004973;28;20032;-61
2021/06/13 06:34:14;;;;;;;8.13;3.75;;;22.20;75.10;;;;;;4987504;28;20045;-60
2021/06/13 06:36:40;;;;;;;6.78;3.85;;;22.20;75.00;;;;;;4986887;28;20041;-60
2021/06/13 06:39:06;;;;;;;5.68;3.65;;;22.20;74.90;;;;;;5002457;28;20037;-60
2021/06/13 06:41:31;;;;;;;3.90;3.53;;;22.20;74.90;;;;;;5004013;28;20054;-59
2021/06/13 06:43:57;;;;;;;4.72;3.58;;;22.20;74.90;;;;;;5005331;28;20037;-59
2021/06/13 06:46:22;;;;;;;8.43;3.85;;;22.20;74.90;;;;;;5004680;28;20533;-60
2021/06/13 06:48:48;;;;;;;5.57;3.90;;;22.20;74.90;;;;;;5005079;28;20124;-60
2021/06/13 06:51:13;;;;;;;5.65;3.88;;;22.20;74.80;;;;;;5005763;28;20037;-60
2021/06/13 06:53:40;;;;;;;8.32;3.92;;;22.20;74.70;;;;;;5005879;28;20030;-60
2021/06/13 06:56:06;;;;;;;4.63;4.22;;;22.10;74.70;;;;;;5002506;28;20030;-61
2021/06/13 06:58:32;;;;;;;4.10;3.70;;;22.20;74.70;;;;;;5002597;28;20496;-60
2021/06/13 07:00:57;;;;;;;8.57;4.22;;;22.20;74.80;;;;;;5004676;28;20057;-60
2021/06/13 07:03:23;;;;;;;11.07;4.90;;;22.20;74.80;;;;;;5004246;28;20124;-60
2021/06/13 07:05:48;;;;;;;9.30;4.68;;;22.20;74.90;;;;;;5004738;28;20072;-60
2021/06/13 07:08:14;;;;;;;5.40;3.88;;;22.20;74.90;;;;;;5002863;28;20022;-60
2021/06/13 07:10:39;;;;;;;6.65;4.18;;;22.20;74.80;;;;;;5004295;28;20042;-60
2021/06/13 07:13:05;;;;;;;8.63;4.47;;;22.20;74.70;;;;;;5004683;28;20041;-60
2021/06/13 07:15:30;;;;;;;5.68;4.63;;;22.20;74.70;;;;;;5003069;28;20288;-61
2021/06/13 07:17:56;;;;;;;5.55;3.80;;;22.20;74.50;;;;;;5001318;28;20030;-60
2021/06/13 07:20:21;;;;;;;6.28;4.45;;;22.10;74.30;;;;;;5002771;28;20050;-60
2021/06/13 07:22:47;;;;;;;6.13;4.63;;;22.20;74.30;;;;;;5000829;28;20452;-60
2021/06/13 07:25:12;;;;;;;5.25;4.75;;;22.20;74.20;;;;;;5000200;28;20548;-60
2021/06/13 07:27:38;;;;;;;6.05;5.25;;;22.20;74.20;;;;;;5004317;28;20124;-59
2021/06/13 07:30:09;;;;;;;5.47;4.95;;;22.20;74.20;;;;;;4999185;28;20104;-60
2021/06/13 07:32:35;;;;;;;5.50;4.70;;;22.20;74.20;;;;;;5004592;28;20060;-59
2021/06/13 07:35:01;;;;;;;4.80;4.22;;;22.20;74.10;;;;;;5003637;28;20029;-60
2021/06/13 07:37:27;;;;;;;4.75;4.28;;;22.20;74.00;;;;;;5004435;28;20034;-60
2021/06/13 07:39:52;;;;;;;6.13;4.60;;;22.30;74.00;;;;;;5003245;28;20034;-60
2021/06/13 07:42:18;;;;;;;6.53;4.25;;;22.30;73.90;;;;;;5004368;28;20045;-59
2021/06/13 07:44:44;;;;;;;5.50;4.90;;;22.30;73.90;;;;;;5003363;28;20061;-60
2021/06/13 07:47:09;;;;;;;5.25;4.70;;;22.30;73.90;;;;;;5001778;28;20072;-60
2021/06/13 07:49:35;;;;;;;5.25;4.53;;;22.30;73.70;;;;;;5003060;28;20034;-60
2021/06/13 07:52:00;;;;;;;4.82;4.32;;;22.30;73.70;;;;;;5004160;28;20045;-60
2021/06/13 07:54:27;;;;;;;6.47;4.78;;;22.30;73.70;;;;;;5004658;28;20316;-60
2021/06/13 07:56:53;;;;;;;7.25;4.75;;;22.30;73.70;;;;;;5003068;28;20576;-60
2021/06/13 07:59:18;;;;;;;4.60;4.15;;;22.30;73.80;;;;;;5003906;28;20229;-60
2021/06/13 08:01:44;;;;;;;5.55;4.80;;;22.30;73.70;;;;;;5003223;28;20033;-61
2021/06/13 08:04:09;;;;;;;5.90;4.97;;;22.30;73.70;;;;;;5004970;28;20037;-60
2021/06/13 08:06:35;;;;;;;5.03;4.60;;;22.30;73.60;;;;;;5002902;28;20479;-60
2021/06/13 08:09:00;;;;;;;7.32;5.38;;;22.30;73.70;;;;;;5004623;28;20485;-60
2021/06/13 08:11:27;;;;;;;8.75;5.57;;;22.30;73.90;;;;;;5001983;28;20469;-60
2021/06/13 08:13:53;;;;;;;8.65;5.15;;;22.20;73.90;;;;;;5003848;28;20029;-61
2021/06/13 08:16:18;;;;;;;6.55;4.90;;;22.30;74.00;;;;;;5007005;28;20088;-59
2021/06/13 08:18:44;;;;;;;16.13;5.57;;;22.20;74.00;;;;;;5004997;28;20141;-60
2021/06/13 08:21:09;;;;;;;9.82;5.95;;;22.20;74.00;;;;;;5007782;28;20281;-60
2021/06/13 08:23:35;;;;;;;7.30;5.68;;;22.20;74.10;;;;;;5008355;28;20049;-61
2021/06/13 08:26:01;;;;;;;14.43;5.97;;;22.20;74.20;;;;;;5007069;28;20457;-61
2021/06/13 08:28:27;;;;;;;9.00;5.55;;;22.20;74.30;;;;;;5003888;28;20058;-60
2021/06/13 08:30:52;;;;;;;23.20;6.00;;;22.30;74.20;;;;;;5007753;28;20025;-60
2021/06/13 08:33:18;;;;;;;24.83;6.95;;;22.30;74.40;;;;;;5006080;28;20034;-59
2021/06/13 08:35:43;;;;;;;32.83;7.38;;;22.30;74.40;;;;;;5007510;28;20386;-60
2021/06/13 08:38:09;;;;;;;24.13;6.63;;;22.30;74.20;;;;;;5007218;28;20034;-60
2021/06/13 08:40:35;;;;;;;23.55;6.80;;;22.30;74.50;;;;;;5003848;28;20033;-61
2021/06/13 08:43:01;;;;;;;49.53;7.68;;;22.30;74.40;;;;;;4989245;28;20312;-60
2021/06/13 08:45:27;;;;;;;43.65;8.02;;;22.40;74.20;;;;;;5005832;28;20102;-59
2021/06/13 08:47:54;;;;;;;39.35;7.80;;;22.40;74.10;;;;;;5005023;28;20026;-60
2021/06/13 08:50:19;;;;;;;38.50;7.38;;;22.50;74.30;;;;;;5007018;28;20068;-60
2021/06/13 08:52:49;;;;;;;74.78;11.02;;;22.40;74.40;;;;;;4988125;28;20058;-60
2021/06/13 08:55:15;;;;;;;31.88;8.27;;;22.50;74.30;;;;;;5006778;28;20038;-60
2021/06/13 08:57:40;;;;;;;55.35;10.18;;;22.50;74.20;;;;;;5005063;28;20037;-60
2021/06/13 09:00:10;;;;;;;69.53;10.38;;;22.50;74.50;;;;;;4986236;28;20160;-60
2021/06/13 09:02:36;;;;;;;64.40;9.70;;;22.60;74.60;;;;;;5017660;28;20045;-60
2021/06/13 09:05:03;;;;;;;69.80;11.05;;;22.60;74.40;;;;;;5005240;28;20022;-61
2021/06/13 09:07:29;;;;;;;50.97;9.30;;;22.60;74.00;;;;;;5005889;28;20026;-60
2021/06/13 09:09:54;;;;;;;58.60;8.63;;;22.60;73.70;;;;;;5007915;28;20038;-60
2021/06/13 09:12:20;;;;;;;80.38;11.20;;;22.70;73.70;;;;;;5005990;28;20025;-60
2021/06/13 09:14:47;;;;;;;92.85;13.50;;;22.70;73.70;;;;;;5004753;28;20429;-60
2021/06/13 09:17:17;;;;;;;75.15;11.90;;;22.70;73.70;;;;;;5006835;28;20030;-59
2021/06/13 09:20:02;;;;;;;62.38;10.15;;;22.70;73.80;;;;;;5005292;28;20056;-60
2021/06/13 09:22:27;;;;;;;46.22;7.75;;;22.80;73.20;;;;;;5015770;28;20026;-60
2021/06/13 09:25:13;;;;;;;58.75;8.52;;;22.80;72.80;;;;;;5005443;28;20033;-60
2021/06/13 09:27:39;;;;;;;;;;;22.80;72.60;;;;;;5005225;28;20474;-61
2021/06/13 09:30:06;;;;;;;;;;;22.80;72.20;;;;;;5038627;28;19920;-60
2021/06/13 09:32:31;;;;;;;73.10;9.15;;;22.80;72.30;;;;;;5037338;28;19963;-60
2021/06/13 09:35:30;;;;;;;73.63;10.25;;;22.90;72.00;;;;;;5003093;28;20116;-61
2021/06/13 09:38:07;;;;;;;63.17;9.30;;;22.90;72.00;;;;;;5004373;28;20382;-60
2021/06/13 09:40:33;;;;;;;81.10;11.52;;;23.00;71.90;;;;;;5006373;28;20038;-60
2021/06/13 09:43:12;;;;;;;107.45;10.15;;;23.00;71.70;;;;;;5006359;28;20040;-61
2021/06/13 09:45:37;;;;;;;99.32;10.45;;;23.00;71.40;;;;;;4989166;28;20077;-60
2021/06/13 09:48:03;;;;;;;191.90;21.80;;;23.00;71.40;;;;;;4987449;28;20485;-60
2021/06/13 09:50:43;;;;;;;78.15;10.13;;;23.10;71.10;;;;;;5002513;28;20075;-61
2021/06/13 09:53:29;;;;;;;65.07;8.88;;;23.10;71.00;;;;;;5004753;28;20032;-61
2021/06/13 09:56:00;;;;;;;;;;;23.10;70.90;;;;;;5006575;28;20022;-61
2021/06/13 09:58:26;;;;;;;64.22;9.32;;;23.20;70.80;;;;;;5004462;28;19913;-60
2021/06/13 10:00:51;;;;;;;76.03;10.75;;;23.20;70.60;;;;;;5006215;28;20025;-61
2021/06/13 10:03:24;;;;;;;64.50;9.63;;;23.30;70.40;;;;;;5006321;28;20418;-60
2021/06/13 10:05:57;;;;;;;56.10;8.77;;;23.30;70.20;;;;;;5003451;28;20025;-61
2021/06/13 10:08:27;;;;;;;85.28;10.27;;;23.30;70.30;;;;;;4985033;28;20034;-60
2021/06/13 10:10:53;;;;;;;63.45;9.50;;;23.40;70.10;;;;;;4986160;28;20049;-61
2021/06/13 10:13:19;;;;;;;102.95;11.25;;;23.40;69.80;;;;;;5005696;28;20463;-60
2021/06/13 10:15:50;;;;;;;45.25;8.18;;;23.40;69.80;;;;;;5004584;28;20034;-60
2021/06/13 10:18:16;;;;;;;54.85;8.52;;;23.50;69.60;;;;;;5006096;28;20117;-60
2021/06/13 10:20:42;;;;;;;41.25;6.93;;;23.50;69.70;;;;;;5005642;28;20148;-59
2021/06/13 10:23:07;;;;;;;38.83;7.57;;;23.60;69.50;;;;;;5003799;28;20577;-60
2021/06/13 10:25:33;;;;;;;57.75;8.00;;;23.60;69.40;;;;;;5004280;28;20530;-59
2021/06/13 10:27:58;;;;;;;60.17;8.65;;;23.60;69.70;;;;;;5004269;28;20033;-61
2021/06/13 10:30:24;;;;;;;73.28;10.25;;;23.60;69.40;;;;;;5004995;28;20018;-61
2021/06/13 10:32:50;;;;;;;53.80;7.28;;;23.70;69.60;;;;;;5003902;28;20073;-59
2021/06/13 10:35:16;;;;;;;95.20;11.90;;;23.70;69.60;;;;;;4986479;28;20108;-60
2021/06/13 10:37:41;;;;;;;34.60;7.22;;;23.70;69.30;;;;;;5003148;28;20041;-61
2021/06/13 10:40:07;;;;;;;78.60;8.80;;;23.70;69.30;;;;;;5005281;28;20033;-61
2021/06/13 10:42:36;;;;;;;36.15;6.78;;;23.70;69.30;;;;;;5005401;28;20037;-60
2021/06/13 10:45:01;;;;;;;122.72;13.05;;;23.80;69.10;;;;;;5000925;28;20029;-60
2021/06/13 10:47:29;;;;;;;64.47;8.95;;;23.80;69.00;;;;;;5004585;28;20571;-60
2021/06/13 10:50:03;;;;;;;33.17;6.55;;;23.90;68.50;;;;;;4992648;28;20030;-60
2021/06/13 10:52:29;;;;;;;134.75;12.88;;;23.90;67.60;;;;;;5005527;28;20048;-60
2021/06/13 10:55:01;;;;;;;49.78;7.32;;;24.00;67.80;;;;;;5005015;28;20140;-60
2021/06/13 10:57:36;;;;;;;21.52;5.53;;;24.00;67.20;;;;;;5004813;28;20481;-60
2021/06/13 11:00:20;;;;;;;29.25;6.03;;;24.00;66.40;;;;;;5002208;28;20045;-60
2021/06/13 11:02:45;;;;;;;34.20;6.10;;;24.00;66.50;;;;;;5003763;28;20164;-61
2021/06/13 11:05:11;;;;;;;32.13;6.50;;;24.00;66.30;;;;;;5005617;28;20026;-60
2021/06/13 11:07:38;;;;;;;42.92;6.07;;;24.10;66.30;;;;;;5003541;28;20038;-60
2021/06/13 11:10:16;;;;;;;45.55;6.65;;;24.10;66.10;;;;;;5014069;28;20109;-61
2021/06/13 11:12:59;;;;;;;61.70;8.93;;;24.20;65.70;;;;;;5004474;28;20029;-60
2021/06/13 11:15:31;;;;;;;38.28;5.95;;;24.30;65.60;;;;;;5004294;28;20478;-61
2021/06/13 11:17:59;;;;;;;81.50;9.35;;;24.50;65.10;;;;;;5003369;28;20497;-60
2021/06/13 11:22:56;;;;;;;40.25;6.63;;;24.60;64.00;;;;;;5002631;28;20029;-60
2021/06/13 11:25:25;;;;;;;230.55;19.75;;;24.70;63.30;;;;;;5003951;28;20080;-61
2021/06/13 11:28:27;;;;;;;50.20;6.80;;;24.70;63.50;;;;;;5003960;28;20022;-60
2021/06/13 11:30:54;;;;;;;29.85;4.78;;;24.80;62.90;;;;;;5017229;28;21288;-60
2021/06/13 11:33:33;;;;;;;29.38;5.15;;;24.90;62.30;;;;;;5002267;28;20470;-61
2021/06/13 11:35:58;;;;;;;28.40;5.10;;;24.90;62.20;;;;;;4999303;28;20045;-59
2021/06/13 11:38:25;;;;;;;8.45;3.13;;;25.00;61.90;;;;;;5002477;28;20484;-61
2021/06/13 11:40:55;;;;;;;31.50;4.30;;;25.00;60.30;;;;;;5003929;28;20026;-61
2021/06/13 11:43:41;;;;;;;29.15;5.22;;;25.00;59.80;;;;;;4986416;28;20037;-61
2021/06/13 11:46:06;;;;;;;32.03;5.78;;;25.10;60.10;;;;;;5003251;28;20919;-60
2021/06/13 11:48:33;;;;;;;65.35;7.60;;;25.10;60.20;;;;;;4999913;28;20046;-60
2021/06/13 11:51:11;;;;;;;39.97;6.03;;;25.20;60.50;;;;;;5001775;28;20501;-60
2021/06/13 11:54:00;;;;;;;33.28;5.10;;;25.30;60.60;;;;;;5002803;28;20029;-60
2021/06/13 11:56:35;;;;;;;35.05;4.55;;;25.40;60.70;;;;;;5002496;28;20026;-60
2021/06/13 11:59:04;;;;;;;25.92;5.10;;;25.40;60.60;;;;;;5001350;28;20030;-60
2021/06/13 12:01:33;;;;;;;17.45;3.70;;;25.50;60.30;;;;;;5001612;28;20046;-61
2021/06/13 12:03:58;;;;;;;17.60;4.05;;;25.50;59.70;;;;;;5001456;28;20727;-59
2021/06/13 12:06:24;;;;;;;22.08;3.97;;;25.50;59.70;;;;;;5001573;28;20046;-60
2021/06/13 12:08:51;;;;;;;19.63;3.88;;;25.50;59.50;;;;;;5004252;28;20109;-61
2021/06/13 12:11:30;;;;;;;22.35;3.90;;;25.60;59.40;;;;;;4985694;28;20049;-61
2021/06/13 12:13:56;;;;;;;20.00;4.18;;;25.70;58.90;;;;;;5002564;28;20034;-60
2021/06/13 12:16:21;;;;;;;30.40;4.35;;;25.70;59.20;;;;;;5002361;28;20041;-60
2021/06/13 12:19:03;;;;;;;19.10;3.80;;;25.90;59.20;;;;;;5002012;28;20028;-60
2021/06/13 12:21:29;;;;;;;24.92;3.63;;;25.90;57.50;;;;;;5001914;28;20026;-61
2021/06/13 12:24:06;;;;;;;20.13;4.10;;;26.00;56.70;;;;;;4984776;28;20467;-61
2021/06/13 12:29:26;;;;;;;23.60;3.85;;;26.10;57.20;;;;;;5016014;28;20025;-60
2021/06/13 12:32:08;;;;;;;14.00;3.65;;;26.20;56.80;;;;;;5002272;28;20079;-60
2021/06/13 12:34:34;;;;;;;22.67;4.45;;;26.30;56.90;;;;;;4987003;28;20490;-61
2021/06/13 12:36:59;;;;;;;49.10;5.72;;;26.40;57.30;;;;;;5002207;28;20026;-61
2021/06/13 12:39:29;;;;;;;36.63;5.72;;;26.50;57.10;;;;;;5002229;28;20116;-60
2021/06/13 12:42:11;;;;;;;32.72;5.22;;;26.50;56.60;;;;;;5002072;28;20034;-61
2021/06/13 12:44:37;;;;;;;30.10;4.45;;;26.60;56.40;;;;;;5002547;28;20084;-60
2021/06/13 12:47:04;;;;;;;24.17;4.45;;;26.70;56.10;;;;;;4986253;28;20038;-61
2021/06/13 12:49:41;;;;;;;35.58;5.43;;;26.70;55.80;;;;;;5002682;28;20074;-60
2021/06/13 12:52:14;;;;;;;39.60;4.85;;;26.80;55.60;;;;;;5000966;28;20044;-60